sensor_id;sensor_type;location;lat;lon;timestamp;P1;durP1;ratioP1;P2;durP2;ratioP2
43325;SDS011;28920;59.862;30.636;2022-10-04T00:02:43;2.90;;;1.85;;
43325;SDS011;28920;59.862;30.636;2022-10-04T00:05:13;4.32;;;2.25;;
43325;SDS011;28920;59.862;30.636;2022-10-04T00:07:44;2.50;;;1.45;;
43325;SDS011;28920;59.862;30.636;2022-10-04T00:10:17;4.18;;;1.67;;
43325;SDS011;28920;59.862;30.636;2022-10-04T00:12:47;3.85;;;1.58;;
43325;SDS011;28920;59.862;30.636;2022-10-04T00:15:18;2.67;;;1.85;;
43325;SDS011;28920;59.862;30.636;2022-10-04T00:18:06;3.28;;;1.80;;
43325;SDS011;28920;59.862;30.636;2022-10-04T00:25:53;2.83;;;1.70;;
43325;SDS011;28920;59.862;30.636;2022-10-04T00:28:28;1.42;;;1.10;;
43325;SDS011;28920;59.862;30.636;2022-10-04T00:33:35;2.40;;;1.40;;
43325;SDS011;28920;59.862;30.636;2022-10-04T00:39:12;1.67;;;1.33;;
43325;SDS011;28920;59.862;30.636;2022-10-04T00:46:54;1.95;;;1.65;;
43325;SDS011;28920;59.862;30.636;2022-10-04T00:49:24;2.75;;;1.90;;
43325;SDS011;28920;59.862;30.636;2022-10-04T00:51:55;3.22;;;1.60;;
43325;SDS011;28920;59.862;30.636;2022-10-04T00:54:28;2.10;;;1.60;;
43325;SDS011;28920;59.862;30.636;2022-10-04T00:57:01;1.77;;;1.42;;
43325;SDS011;28920;59.862;30.636;2022-10-04T00:59:33;4.00;;;1.50;;
43325;SDS011;28920;59.862;30.636;2022-10-04T01:02:05;2.03;;;1.63;;
43325;SDS011;28920;59.862;30.636;2022-10-04T01:09:41;2.53;;;1.30;;
43325;SDS011;28920;59.862;30.636;2022-10-04T01:12:16;2.37;;;1.00;;
43325;SDS011;28920;59.862;30.636;2022-10-04T01:14:59;2.87;;;1.80;;
43325;SDS011;28920;59.862;30.636;2022-10-04T01:17:31;2.15;;;1.55;;
43325;SDS011;28920;59.862;30.636;2022-10-04T01:19:58;1.80;;;1.30;;
43325;SDS011;28920;59.862;30.636;2022-10-04T01:22:34;1.90;;;1.30;;
43325;SDS011;28920;59.862;30.636;2022-10-04T01:28:36;1.70;;;1.23;;
43325;SDS011;28920;59.862;30.636;2022-10-04T01:31:04;2.85;;;1.40;;
43325;SDS011;28920;59.862;30.636;2022-10-04T01:33:31;2.15;;;1.40;;
43325;SDS011;28920;59.862;30.636;2022-10-04T01:35:59;2.95;;;1.20;;
43325;SDS011;28920;59.862;30.636;2022-10-04T01:38:27;1.33;;;1.23;;
43325;SDS011;28920;59.862;30.636;2022-10-04T01:40:54;1.85;;;1.10;;
43325;SDS011;28920;59.862;30.636;2022-10-04T01:43:26;1.92;;;1.10;;
43325;SDS011;28920;59.862;30.636;2022-10-04T01:50:33;3.03;;;0.98;;
43325;SDS011;28920;59.862;30.636;2022-10-04T01:53:08;2.67;;;1.00;;
43325;SDS011;28920;59.862;30.636;2022-10-04T01:55:41;2.72;;;1.10;;
43325;SDS011;28920;59.862;30.636;2022-10-04T02:00:42;1.45;;;0.95;;
43325;SDS011;28920;59.862;30.636;2022-10-04T02:03:17;2.78;;;0.70;;
43325;SDS011;28920;59.862;30.636;2022-10-04T02:05:49;1.40;;;1.15;;
43325;SDS011;28920;59.862;30.636;2022-10-04T02:13:19;1.80;;;0.90;;
43325;SDS011;28920;59.862;30.636;2022-10-04T02:15:48;0.50;;;0.50;;
43325;SDS011;28920;59.862;30.636;2022-10-04T02:18:16;1.23;;;0.70;;
43325;SDS011;28920;59.862;30.636;2022-10-04T02:20:46;0.88;;;0.70;;
43325;SDS011;28920;59.862;30.636;2022-10-04T02:23:16;0.80;;;0.60;;
43325;SDS011;28920;59.862;30.636;2022-10-04T02:25:45;1.10;;;0.80;;
43325;SDS011;28920;59.862;30.636;2022-10-04T02:28:13;1.60;;;0.50;;
43325;SDS011;28920;59.862;30.636;2022-10-04T02:35:43;1.65;;;1.00;;
43325;SDS011;28920;59.862;30.636;2022-10-04T02:38:13;2.28;;;0.90;;
43325;SDS011;28920;59.862;30.636;2022-10-04T02:40:46;0.70;;;0.70;;
43325;SDS011;28920;59.862;30.636;2022-10-04T02:43:26;0.90;;;0.70;;
43325;SDS011;28920;59.862;30.636;2022-10-04T02:45:59;1.85;;;0.80;;
43325;SDS011;28920;59.862;30.636;2022-10-04T02:48:35;2.58;;;0.80;;
43325;SDS011;28920;59.862;30.636;2022-10-04T02:53:56;0.85;;;0.73;;
43325;SDS011;28920;59.862;30.636;2022-10-04T02:56:29;1.08;;;0.70;;
43325;SDS011;28920;59.862;30.636;2022-10-04T02:58:59;1.45;;;0.90;;
43325;SDS011;28920;59.862;30.636;2022-10-04T03:01:35;1.00;;;0.60;;
43325;SDS011;28920;59.862;30.636;2022-10-04T03:04:09;3.25;;;0.80;;
43325;SDS011;28920;59.862;30.636;2022-10-04T03:06:40;0.95;;;0.82;;
43325;SDS011;28920;59.862;30.636;2022-10-04T03:09:11;3.80;;;0.95;;
43325;SDS011;28920;59.862;30.636;2022-10-04T03:11:52;4.45;;;1.00;;
43325;SDS011;28920;59.862;30.636;2022-10-04T03:14:22;2.25;;;0.90;;
43325;SDS011;28920;59.862;30.636;2022-10-04T03:16:52;1.40;;;0.90;;
43325;SDS011;28920;59.862;30.636;2022-10-04T03:19:22;1.85;;;1.10;;
43325;SDS011;28920;59.862;30.636;2022-10-04T03:21:52;1.40;;;1.20;;
43325;SDS011;28920;59.862;30.636;2022-10-04T03:24:25;1.02;;;0.70;;
43325;SDS011;28920;59.862;30.636;2022-10-04T03:29:48;1.27;;;0.80;;
43325;SDS011;28920;59.862;30.636;2022-10-04T03:32:16;1.50;;;1.10;;
43325;SDS011;28920;59.862;30.636;2022-10-04T03:34:47;0.88;;;0.80;;
43325;SDS011;28920;59.862;30.636;2022-10-04T03:37:19;0.82;;;0.60;;
43325;SDS011;28920;59.862;30.636;2022-10-04T03:39:47;1.25;;;0.80;;
43325;SDS011;28920;59.862;30.636;2022-10-04T03:42:17;2.22;;;1.00;;
43325;SDS011;28920;59.862;30.636;2022-10-04T03:44:50;1.98;;;1.52;;
43325;SDS011;28920;59.862;30.636;2022-10-04T03:50:01;3.12;;;1.55;;
43325;SDS011;28920;59.862;30.636;2022-10-04T03:52:33;2.60;;;1.50;;
43325;SDS011;28920;59.862;30.636;2022-10-04T03:55:03;1.58;;;1.12;;
43325;SDS011;28920;59.862;30.636;2022-10-04T03:57:33;2.35;;;1.30;;
43325;SDS011;28920;59.862;30.636;2022-10-04T04:00:03;1.92;;;1.40;;
43325;SDS011;28920;59.862;30.636;2022-10-04T04:02:40;1.30;;;1.15;;
43325;SDS011;28920;59.862;30.636;2022-10-04T04:05:12;1.33;;;1.15;;
43325;SDS011;28920;59.862;30.636;2022-10-04T04:10:26;3.25;;;1.80;;
43325;SDS011;28920;59.862;30.636;2022-10-04T04:12:58;1.37;;;1.20;;
43325;SDS011;28920;59.862;30.636;2022-10-04T04:15:29;3.28;;;1.60;;
43325;SDS011;28920;59.862;30.636;2022-10-04T04:17:58;2.83;;;1.50;;
43325;SDS011;28920;59.862;30.636;2022-10-04T04:20:29;3.75;;;1.62;;
43325;SDS011;28920;59.862;30.636;2022-10-04T04:23:00;3.03;;;1.85;;
43325;SDS011;28920;59.862;30.636;2022-10-04T04:33:06;2.83;;;1.50;;
43325;SDS011;28920;59.862;30.636;2022-10-04T04:35:37;2.28;;;1.77;;
43325;SDS011;28920;59.862;30.636;2022-10-04T04:38:09;5.05;;;1.67;;
43325;SDS011;28920;59.862;30.636;2022-10-04T04:40:43;1.80;;;1.42;;
43325;SDS011;28920;59.862;30.636;2022-10-04T04:43:12;1.92;;;1.60;;
43325;SDS011;28920;59.862;30.636;2022-10-04T04:45:43;4.57;;;1.95;;
43325;SDS011;28920;59.862;30.636;2022-10-04T04:51:39;3.72;;;2.40;;
43325;SDS011;28920;59.862;30.636;2022-10-04T04:54:12;3.42;;;2.28;;
43325;SDS011;28920;59.862;30.636;2022-10-04T04:56:41;2.80;;;2.10;;
43325;SDS011;28920;59.862;30.636;2022-10-04T04:59:10;5.32;;;2.35;;
43325;SDS011;28920;59.862;30.636;2022-10-04T05:01:41;13.07;;;3.75;;
43325;SDS011;28920;59.862;30.636;2022-10-04T05:06:45;3.78;;;1.62;;
43325;SDS011;28920;59.862;30.636;2022-10-04T05:14:21;5.87;;;2.75;;
43325;SDS011;28920;59.862;30.636;2022-10-04T05:16:50;4.53;;;2.58;;
43325;SDS011;28920;59.862;30.636;2022-10-04T05:19:19;4.32;;;3.12;;
43325;SDS011;28920;59.862;30.636;2022-10-04T05:24:19;2.17;;;1.77;;
43325;SDS011;28920;59.862;30.636;2022-10-04T05:26:49;2.87;;;2.25;;
43325;SDS011;28920;59.862;30.636;2022-10-04T05:29:20;2.92;;;2.17;;
43325;SDS011;28920;59.862;30.636;2022-10-04T05:32:49;2.05;;;1.70;;
43325;SDS011;28920;59.862;30.636;2022-10-04T05:35:26;4.75;;;2.55;;
43325;SDS011;28920;59.862;30.636;2022-10-04T05:37:58;4.45;;;1.87;;
43325;SDS011;28920;59.862;30.636;2022-10-04T05:40:34;7.50;;;3.20;;
43325;SDS011;28920;59.862;30.636;2022-10-04T05:43:19;111.70;;;72.25;;
43325;SDS011;28920;59.862;30.636;2022-10-04T05:46:05;9.95;;;8.38;;
43325;SDS011;28920;59.862;30.636;2022-10-04T05:53:41;6.65;;;4.85;;
43325;SDS011;28920;59.862;30.636;2022-10-04T05:56:11;8.15;;;4.35;;
43325;SDS011;28920;59.862;30.636;2022-10-04T05:58:54;24.12;;;11.60;;
43325;SDS011;28920;59.862;30.636;2022-10-04T06:01:35;31.05;;;15.98;;
43325;SDS011;28920;59.862;30.636;2022-10-04T06:04:19;25.52;;;11.52;;
43325;SDS011;28920;59.862;30.636;2022-10-04T06:06:58;47.53;;;17.60;;
43325;SDS011;28920;59.862;30.636;2022-10-04T06:12:08;81.85;;;30.27;;
43325;SDS011;28920;59.862;30.636;2022-10-04T06:14:45;44.13;;;17.40;;
43325;SDS011;28920;59.862;30.636;2022-10-04T06:17:47;44.40;;;14.82;;
43325;SDS011;28920;59.862;30.636;2022-10-04T06:20:42;24.45;;;10.63;;
43325;SDS011;28920;59.862;30.636;2022-10-04T06:23:20;38.50;;;15.90;;
43325;SDS011;28920;59.862;30.636;2022-10-04T06:25:50;18.20;;;6.32;;
43325;SDS011;28920;59.862;30.636;2022-10-04T06:32:10;57.55;;;23.85;;
43325;SDS011;28920;59.862;30.636;2022-10-04T06:35:09;59.10;;;22.73;;
43325;SDS011;28920;59.862;30.636;2022-10-04T06:38:13;43.78;;;20.08;;
43325;SDS011;28920;59.862;30.636;2022-10-04T06:41:05;39.22;;;16.55;;
43325;SDS011;28920;59.862;30.636;2022-10-04T06:46:51;42.60;;;19.42;;
43325;SDS011;28920;59.862;30.636;2022-10-04T06:55:17;35.22;;;12.55;;
43325;SDS011;28920;59.862;30.636;2022-10-04T06:58:04;66.03;;;24.52;;
43325;SDS011;28920;59.862;30.636;2022-10-04T07:00:51;35.83;;;12.20;;
43325;SDS011;28920;59.862;30.636;2022-10-04T07:03:24;43.97;;;15.10;;
43325;SDS011;28920;59.862;30.636;2022-10-04T07:05:58;27.27;;;11.45;;
43325;SDS011;28920;59.862;30.636;2022-10-04T07:08:32;42.70;;;17.60;;
43325;SDS011;28920;59.862;30.636;2022-10-04T07:15:43;14.50;;;7.60;;
43325;SDS011;28920;59.862;30.636;2022-10-04T07:18:18;12.90;;;6.43;;
43325;SDS011;28920;59.862;30.636;2022-10-04T07:20:49;8.88;;;4.70;;
43325;SDS011;28920;59.862;30.636;2022-10-04T07:23:25;11.32;;;5.10;;
43325;SDS011;28920;59.862;30.636;2022-10-04T07:25:57;20.65;;;9.23;;
43325;SDS011;28920;59.862;30.636;2022-10-04T07:28:31;6.05;;;3.20;;
43325;SDS011;28920;59.862;30.636;2022-10-04T07:34:54;4.00;;;2.50;;
43325;SDS011;28920;59.862;30.636;2022-10-04T07:37:29;3.78;;;2.65;;
43325;SDS011;28920;59.862;30.636;2022-10-04T07:40:03;5.43;;;2.42;;
43325;SDS011;28920;59.862;30.636;2022-10-04T07:42:36;8.98;;;5.05;;
43325;SDS011;28920;59.862;30.636;2022-10-04T07:45:13;6.87;;;4.25;;
43325;SDS011;28920;59.862;30.636;2022-10-04T07:47:46;3.08;;;2.58;;
43325;SDS011;28920;59.862;30.636;2022-10-04T07:50:18;4.45;;;2.90;;
43325;SDS011;28920;59.862;30.636;2022-10-04T07:53:01;4.43;;;2.12;;
43325;SDS011;28920;59.862;30.636;2022-10-04T07:55:38;3.28;;;1.75;;
43325;SDS011;28920;59.862;30.636;2022-10-04T07:58:17;5.20;;;2.97;;
43325;SDS011;28920;59.862;30.636;2022-10-04T08:01:04;5.95;;;3.83;;
43325;SDS011;28920;59.862;30.636;2022-10-04T08:03:47;3.45;;;1.70;;
43325;SDS011;28920;59.862;30.636;2022-10-04T08:06:30;2.55;;;1.70;;
43325;SDS011;28920;59.862;30.636;2022-10-04T08:14:15;33.75;;;18.25;;
43325;SDS011;28920;59.862;30.636;2022-10-04T08:16:56;82.93;;;48.17;;
43325;SDS011;28920;59.862;30.636;2022-10-04T08:19:38;2.17;;;1.15;;
43325;SDS011;28920;59.862;30.636;2022-10-04T08:22:17;1.87;;;0.80;;
43325;SDS011;28920;59.862;30.636;2022-10-04T08:24:57;1.83;;;1.15;;
43325;SDS011;28920;59.862;30.636;2022-10-04T08:27:35;1.35;;;1.00;;
43325;SDS011;28920;59.862;30.636;2022-10-04T08:35:33;2.70;;;1.60;;
43325;SDS011;28920;59.862;30.636;2022-10-04T08:38:12;1.73;;;0.80;;
43325;SDS011;28920;59.862;30.636;2022-10-04T08:41:22;3.55;;;1.48;;
43325;SDS011;28920;59.862;30.636;2022-10-04T08:44:07;4.05;;;1.10;;
43325;SDS011;28920;59.862;30.636;2022-10-04T09:01:30;1.02;;;0.50;;
43325;SDS011;28920;59.862;30.636;2022-10-04T09:07:38;1.50;;;0.47;;
43325;SDS011;28920;59.862;30.636;2022-10-04T09:10:33;1.40;;;0.90;;
43325;SDS011;28920;59.862;30.636;2022-10-04T09:13:12;0.65;;;0.32;;
43325;SDS011;28920;59.862;30.636;2022-10-04T09:16:14;0.80;;;0.70;;
43325;SDS011;28920;59.862;30.636;2022-10-04T09:18:48;3.72;;;1.37;;
43325;SDS011;28920;59.862;30.636;2022-10-04T09:21:27;1.55;;;1.08;;
43325;SDS011;28920;59.862;30.636;2022-10-04T09:24:19;2.45;;;1.52;;
43325;SDS011;28920;59.862;30.636;2022-10-04T09:27:05;0.73;;;0.62;;
43325;SDS011;28920;59.862;30.636;2022-10-04T09:30:02;1.10;;;0.75;;
43325;SDS011;28920;59.862;30.636;2022-10-04T09:35:31;1.90;;;1.08;;
43325;SDS011;28920;59.862;30.636;2022-10-04T09:38:22;0.40;;;0.40;;
43325;SDS011;28920;59.862;30.636;2022-10-04T09:41:24;0.60;;;0.40;;
43325;SDS011;28920;59.862;30.636;2022-10-04T09:50:14;0.28;;;0.28;;
43325;SDS011;28920;59.862;30.636;2022-10-04T09:57:22;0.40;;;0.40;;
43325;SDS011;28920;59.862;30.636;2022-10-04T10:00:05;0.43;;;0.40;;
43325;SDS011;28920;59.862;30.636;2022-10-04T10:05:51;0.60;;;0.40;;
43325;SDS011;28920;59.862;30.636;2022-10-04T10:08:35;1.62;;;0.57;;
43325;SDS011;28920;59.862;30.636;2022-10-04T10:11:15;0.62;;;0.50;;
43325;SDS011;28920;59.862;30.636;2022-10-04T10:19:54;1.23;;;0.62;;
43325;SDS011;28920;59.862;30.636;2022-10-04T10:22:55;1.48;;;0.70;;
43325;SDS011;28920;59.862;30.636;2022-10-04T10:25:38;1.48;;;0.40;;
43325;SDS011;28920;59.862;30.636;2022-10-04T10:31:27;1.02;;;0.43;;
43325;SDS011;28920;59.862;30.636;2022-10-04T10:34:18;1.70;;;0.93;;
43325;SDS011;28920;59.862;30.636;2022-10-04T10:42:19;0.35;;;0.30;;
43325;SDS011;28920;59.862;30.636;2022-10-04T10:45:12;0.62;;;0.52;;
43325;SDS011;28920;59.862;30.636;2022-10-04T10:47:59;1.30;;;0.37;;
43325;SDS011;28920;59.862;30.636;2022-10-04T10:50:43;1.17;;;0.70;;
43325;SDS011;28920;59.862;30.636;2022-10-04T10:53:28;0.40;;;0.30;;
43325;SDS011;28920;59.862;30.636;2022-10-04T11:08:09;0.55;;;0.32;;
43325;SDS011;28920;59.862;30.636;2022-10-04T11:11:10;0.30;;;0.20;;
43325;SDS011;28920;59.862;30.636;2022-10-04T11:14:09;0.35;;;0.32;;
43325;SDS011;28920;59.862;30.636;2022-10-04T11:29:22;0.30;;;0.20;;
43325;SDS011;28920;59.862;30.636;2022-10-04T11:32:14;1.12;;;0.93;;
43325;SDS011;28920;59.862;30.636;2022-10-04T11:35:29;0.80;;;0.30;;
43325;SDS011;28920;59.862;30.636;2022-10-04T11:39:14;1.50;;;0.30;;
43325;SDS011;28920;59.862;30.636;2022-10-04T11:42:00;0.90;;;0.40;;
43325;SDS011;28920;59.862;30.636;2022-10-04T11:44:51;1.08;;;0.40;;
43325;SDS011;28920;59.862;30.636;2022-10-04T11:50:27;0.70;;;0.40;;
43325;SDS011;28920;59.862;30.636;2022-10-04T11:58:51;1.23;;;0.60;;
43325;SDS011;28920;59.862;30.636;2022-10-04T12:04:45;1.42;;;0.93;;
43325;SDS011;28920;59.862;30.636;2022-10-04T12:07:37;0.90;;;0.40;;
43325;SDS011;28920;59.862;30.636;2022-10-04T12:10:21;1.27;;;0.35;;
43325;SDS011;28920;59.862;30.636;2022-10-04T12:12:56;0.20;;;0.20;;
43325;SDS011;28920;59.862;30.636;2022-10-04T12:22:09;0.70;;;0.35;;
43325;SDS011;28920;59.862;30.636;2022-10-04T12:27:58;0.32;;;0.30;;
43325;SDS011;28920;59.862;30.636;2022-10-04T12:33:50;1.75;;;0.40;;
43325;SDS011;28920;59.862;30.636;2022-10-04T12:36:40;0.77;;;0.40;;
43325;SDS011;28920;59.862;30.636;2022-10-04T12:39:24;2.08;;;0.45;;
43325;SDS011;28920;59.862;30.636;2022-10-04T12:42:04;1.17;;;0.60;;
43325;SDS011;28920;59.862;30.636;2022-10-04T12:44:42;1.75;;;0.80;;
43325;SDS011;28920;59.862;30.636;2022-10-04T12:47:34;1.37;;;1.27;;
43325;SDS011;28920;59.862;30.636;2022-10-04T12:50:27;2.03;;;0.90;;
43325;SDS011;28920;59.862;30.636;2022-10-04T12:58:52;2.17;;;0.75;;
43325;SDS011;28920;59.862;30.636;2022-10-04T13:01:34;2.47;;;0.90;;
43325;SDS011;28920;59.862;30.636;2022-10-04T13:04:14;1.30;;;0.88;;
43325;SDS011;28920;59.862;30.636;2022-10-04T13:06:54;1.73;;;0.90;;
43325;SDS011;28920;59.862;30.636;2022-10-04T13:09:43;1.20;;;0.73;;
43325;SDS011;28920;59.862;30.636;2022-10-04T13:17:21;1.75;;;0.88;;
43325;SDS011;28920;59.862;30.636;2022-10-04T13:20:01;6.12;;;2.55;;
43325;SDS011;28920;59.862;30.636;2022-10-04T13:22:59;4.37;;;1.87;;
43325;SDS011;28920;59.862;30.636;2022-10-04T13:25:36;5.60;;;1.75;;
43325;SDS011;28920;59.862;30.636;2022-10-04T13:28:21;7.03;;;3.33;;
43325;SDS011;28920;59.862;30.636;2022-10-04T13:30:56;10.70;;;5.18;;
43325;SDS011;28920;59.862;30.636;2022-10-04T13:37:02;10.75;;;6.55;;
43325;SDS011;28920;59.862;30.636;2022-10-04T13:39:45;9.10;;;5.53;;
43325;SDS011;28920;59.862;30.636;2022-10-04T13:42:34;7.18;;;4.90;;
43325;SDS011;28920;59.862;30.636;2022-10-04T13:45:25;10.35;;;6.75;;
43325;SDS011;28920;59.862;30.636;2022-10-04T13:48:09;5.37;;;4.07;;
43325;SDS011;28920;59.862;30.636;2022-10-04T13:50:55;3.97;;;2.17;;
43325;SDS011;28920;59.862;30.636;2022-10-04T13:58:58;2.78;;;1.83;;
43325;SDS011;28920;59.862;30.636;2022-10-04T14:01:45;1.98;;;1.30;;
43325;SDS011;28920;59.862;30.636;2022-10-04T14:04:41;4.82;;;1.67;;
43325;SDS011;28920;59.862;30.636;2022-10-04T14:19:41;12.55;;;2.75;;
43325;SDS011;28920;59.862;30.636;2022-10-04T14:22:29;3.20;;;1.98;;
43325;SDS011;28920;59.862;30.636;2022-10-04T14:25:27;4.87;;;3.12;;
43325;SDS011;28920;59.862;30.636;2022-10-04T14:28:28;6.47;;;3.55;;
43325;SDS011;28920;59.862;30.636;2022-10-04T14:31:19;4.20;;;2.20;;
43325;SDS011;28920;59.862;30.636;2022-10-04T14:34:01;5.55;;;2.50;;
43325;SDS011;28920;59.862;30.636;2022-10-04T14:44:59;8.05;;;3.30;;
43325;SDS011;28920;59.862;30.636;2022-10-04T14:47:40;5.55;;;2.85;;
43325;SDS011;28920;59.862;30.636;2022-10-04T14:50:37;4.40;;;2.25;;
43325;SDS011;28920;59.862;30.636;2022-10-04T14:53:18;19.83;;;11.63;;
43325;SDS011;28920;59.862;30.636;2022-10-04T14:55:58;22.00;;;13.95;;
43325;SDS011;28920;59.862;30.636;2022-10-04T15:03:36;12.15;;;6.87;;
43325;SDS011;28920;59.862;30.636;2022-10-04T15:06:17;16.10;;;10.20;;
43325;SDS011;28920;59.862;30.636;2022-10-04T15:12:37;12.52;;;8.43;;
43325;SDS011;28920;59.862;30.636;2022-10-04T15:17:54;9.68;;;6.03;;
43325;SDS011;28920;59.862;30.636;2022-10-04T15:25:37;10.70;;;7.25;;
43325;SDS011;28920;59.862;30.636;2022-10-04T15:28:10;13.52;;;9.43;;
43325;SDS011;28920;59.862;30.636;2022-10-04T15:30:55;16.80;;;9.73;;
43325;SDS011;28920;59.862;30.636;2022-10-04T15:33:31;11.23;;;8.55;;
43325;SDS011;28920;59.862;30.636;2022-10-04T15:36:13;11.77;;;8.48;;
43325;SDS011;28920;59.862;30.636;2022-10-04T15:38:54;14.05;;;9.63;;
43325;SDS011;28920;59.862;30.636;2022-10-04T15:46:33;15.43;;;10.98;;
43325;SDS011;28920;59.862;30.636;2022-10-04T15:49:19;29.30;;;17.12;;
43325;SDS011;28920;59.862;30.636;2022-10-04T15:52:17;49.90;;;27.10;;
43325;SDS011;28920;59.862;30.636;2022-10-04T15:55:27;41.92;;;22.77;;
43325;SDS011;28920;59.862;30.636;2022-10-04T15:58:18;39.75;;;21.77;;
43325;SDS011;28920;59.862;30.636;2022-10-04T16:04:41;43.05;;;21.75;;
43325;SDS011;28920;59.862;30.636;2022-10-04T16:10:21;48.70;;;24.87;;
43325;SDS011;28920;59.862;30.636;2022-10-04T16:13:02;64.28;;;31.83;;
43325;SDS011;28920;59.862;30.636;2022-10-04T16:22:36;55.22;;;29.42;;
43325;SDS011;28920;59.862;30.636;2022-10-04T16:28:03;47.72;;;21.35;;
43325;SDS011;28920;59.862;30.636;2022-10-04T16:30:39;44.13;;;21.92;;
43325;SDS011;28920;59.862;30.636;2022-10-04T16:36:02;74.32;;;31.58;;
43325;SDS011;28920;59.862;30.636;2022-10-04T16:41:31;71.55;;;33.55;;
43325;SDS011;28920;59.862;30.636;2022-10-04T16:44:08;56.08;;;28.60;;
43325;SDS011;28920;59.862;30.636;2022-10-04T16:46:57;54.55;;;26.10;;
43325;SDS011;28920;59.862;30.636;2022-10-04T16:49:30;53.80;;;25.52;;
43325;SDS011;28920;59.862;30.636;2022-10-04T16:52:10;47.47;;;24.80;;
43325;SDS011;28920;59.862;30.636;2022-10-04T16:54:58;388.20;;;166.45;;
43325;SDS011;28920;59.862;30.636;2022-10-04T17:02:55;413.45;;;190.85;;
43325;SDS011;28920;59.862;30.636;2022-10-04T17:08:39;171.27;;;75.82;;
43325;SDS011;28920;59.862;30.636;2022-10-04T17:14:20;275.98;;;119.13;;
43325;SDS011;28920;59.862;30.636;2022-10-04T17:17:01;306.58;;;126.15;;
43325;SDS011;28920;59.862;30.636;2022-10-04T17:24:39;308.98;;;121.97;;
43325;SDS011;28920;59.862;30.636;2022-10-04T17:27:24;289.80;;;116.70;;
43325;SDS011;28920;59.862;30.636;2022-10-04T17:29:56;342.15;;;133.15;;
43325;SDS011;28920;59.862;30.636;2022-10-04T17:32:35;316.70;;;107.47;;
43325;SDS011;28920;59.862;30.636;2022-10-04T17:35:16;231.65;;;96.15;;
43325;SDS011;28920;59.862;30.636;2022-10-04T17:38:03;185.37;;;79.95;;
43325;SDS011;28920;59.862;30.636;2022-10-04T17:40:38;226.05;;;74.35;;
43325;SDS011;28920;59.862;30.636;2022-10-04T17:48:12;303.85;;;92.57;;
43325;SDS011;28920;59.862;30.636;2022-10-04T17:51:01;265.30;;;92.00;;
43325;SDS011;28920;59.862;30.636;2022-10-04T17:53:53;175.60;;;75.57;;
43325;SDS011;28920;59.862;30.636;2022-10-04T17:56:46;198.73;;;79.78;;
43325;SDS011;28920;59.862;30.636;2022-10-04T17:59:17;201.07;;;87.93;;
43325;SDS011;28920;59.862;30.636;2022-10-04T18:01:50;222.95;;;94.28;;
43325;SDS011;28920;59.862;30.636;2022-10-04T18:09:26;303.77;;;122.68;;
43325;SDS011;28920;59.862;30.636;2022-10-04T18:12:02;306.63;;;117.62;;
43325;SDS011;28920;59.862;30.636;2022-10-04T18:14:43;451.65;;;146.15;;
43325;SDS011;28920;59.862;30.636;2022-10-04T18:17:29;278.08;;;113.53;;
43325;SDS011;28920;59.862;30.636;2022-10-04T18:20:17;250.27;;;108.45;;
43325;SDS011;28920;59.862;30.636;2022-10-04T18:22:55;222.18;;;105.28;;
43325;SDS011;28920;59.862;30.636;2022-10-04T18:28:10;161.45;;;80.07;;
43325;SDS011;28920;59.862;30.636;2022-10-04T18:33:28;126.40;;;64.45;;
43325;SDS011;28920;59.862;30.636;2022-10-04T18:36:13;130.40;;;57.35;;
43325;SDS011;28920;59.862;30.636;2022-10-04T18:38:42;95.20;;;50.10;;
43325;SDS011;28920;59.862;30.636;2022-10-04T18:41:15;116.05;;;54.58;;
43325;SDS011;28920;59.862;30.636;2022-10-04T18:48:59;57.85;;;32.78;;
43325;SDS011;28920;59.862;30.636;2022-10-04T18:51:42;54.10;;;30.40;;
43325;SDS011;28920;59.862;30.636;2022-10-04T18:54:17;57.13;;;30.23;;
43325;SDS011;28920;59.862;30.636;2022-10-04T18:56:57;40.35;;;25.12;;
43325;SDS011;28920;59.862;30.636;2022-10-04T18:59:38;36.70;;;22.23;;
43325;SDS011;28920;59.862;30.636;2022-10-04T19:02:34;40.08;;;21.45;;
43325;SDS011;28920;59.862;30.636;2022-10-04T19:08:55;40.33;;;23.02;;
43325;SDS011;28920;59.862;30.636;2022-10-04T19:11:32;41.45;;;22.67;;
43325;SDS011;28920;59.862;30.636;2022-10-04T19:14:07;39.67;;;23.02;;
43325;SDS011;28920;59.862;30.636;2022-10-04T19:16:48;42.67;;;24.67;;
43325;SDS011;28920;59.862;30.636;2022-10-04T19:19:26;44.78;;;25.85;;
43325;SDS011;28920;59.862;30.636;2022-10-04T19:22:06;60.15;;;32.03;;
43325;SDS011;28920;59.862;30.636;2022-10-04T19:27:36;104.43;;;56.67;;
43325;SDS011;28920;59.862;30.636;2022-10-04T19:30:15;110.18;;;57.65;;
43325;SDS011;28920;59.862;30.636;2022-10-04T19:32:51;97.75;;;53.15;;
43325;SDS011;28920;59.862;30.636;2022-10-04T19:35:29;80.80;;;45.72;;
43325;SDS011;28920;59.862;30.636;2022-10-04T19:38:16;65.30;;;38.90;;
43325;SDS011;28920;59.862;30.636;2022-10-04T19:40:58;73.47;;;39.15;;
43325;SDS011;28920;59.862;30.636;2022-10-04T19:46:18;71.05;;;37.63;;
43325;SDS011;28920;59.862;30.636;2022-10-04T19:48:54;66.85;;;38.58;;
43325;SDS011;28920;59.862;30.636;2022-10-04T19:51:23;67.90;;;40.28;;
43325;SDS011;28920;59.862;30.636;2022-10-04T19:54:01;62.40;;;35.78;;
43325;SDS011;28920;59.862;30.636;2022-10-04T19:56:34;58.28;;;32.67;;
43325;SDS011;28920;59.862;30.636;2022-10-04T19:59:11;58.20;;;31.85;;
43325;SDS011;28920;59.862;30.636;2022-10-04T20:06:47;44.17;;;23.70;;
43325;SDS011;28920;59.862;30.636;2022-10-04T20:09:22;38.63;;;22.87;;
43325;SDS011;28920;59.862;30.636;2022-10-04T20:11:55;29.17;;;20.20;;
43325;SDS011;28920;59.862;30.636;2022-10-04T20:17:37;51.28;;;27.55;;
43325;SDS011;28920;59.862;30.636;2022-10-04T20:20:05;50.45;;;25.98;;
43325;SDS011;28920;59.862;30.636;2022-10-04T20:27:59;45.33;;;26.52;;
43325;SDS011;28920;59.862;30.636;2022-10-04T20:36:10;35.58;;;23.02;;
43325;SDS011;28920;59.862;30.636;2022-10-04T20:38:47;48.83;;;23.77;;
43325;SDS011;28920;59.862;30.636;2022-10-04T20:49:37;60.92;;;31.98;;
43325;SDS011;28920;59.862;30.636;2022-10-04T20:52:09;53.97;;;33.97;;
43325;SDS011;28920;59.862;30.636;2022-10-04T20:54:39;54.88;;;30.30;;
43325;SDS011;28920;59.862;30.636;2022-10-04T20:57:17;62.40;;;35.22;;
43325;SDS011;28920;59.862;30.636;2022-10-04T20:59:49;57.20;;;35.38;;
43325;SDS011;28920;59.862;30.636;2022-10-04T21:02:21;58.90;;;33.67;;
43325;SDS011;28920;59.862;30.636;2022-10-04T21:04:53;63.85;;;33.45;;
43325;SDS011;28920;59.862;30.636;2022-10-04T21:11:24;57.05;;;32.00;;
43325;SDS011;28920;59.862;30.636;2022-10-04T21:14:20;57.97;;;31.75;;
43325;SDS011;28920;59.862;30.636;2022-10-04T21:16:48;50.10;;;28.30;;
43325;SDS011;28920;59.862;30.636;2022-10-04T21:22:33;37.20;;;23.35;;
43325;SDS011;28920;59.862;30.636;2022-10-04T21:25:24;33.65;;;20.05;;
43325;SDS011;28920;59.862;30.636;2022-10-04T21:33:13;33.22;;;18.33;;
43325;SDS011;28920;59.862;30.636;2022-10-04T21:35:41;31.37;;;16.80;;
43325;SDS011;28920;59.862;30.636;2022-10-04T21:38:08;24.98;;;16.87;;
43325;SDS011;28920;59.862;30.636;2022-10-04T21:40:35;26.98;;;17.25;;
43325;SDS011;28920;59.862;30.636;2022-10-04T21:43:02;26.58;;;16.30;;
43325;SDS011;28920;59.862;30.636;2022-10-04T21:45:29;28.10;;;17.00;;
43325;SDS011;28920;59.862;30.636;2022-10-04T21:47:57;25.40;;;15.95;;
43325;SDS011;28920;59.862;30.636;2022-10-04T21:54:25;24.30;;;16.17;;
43325;SDS011;28920;59.862;30.636;2022-10-04T21:56:53;28.62;;;18.23;;